Portada
METAR-TAF:

METAR-TAF

Aeroports :

Curitiba, Paranà, Brasil

latitud: 25-26S, longitud: 049-16W, altitud: 924 m

Observació

L'informe es va fer fa 56 minuts, a les 01:00 UTC
Vent 3 kt del Oest/Nord-Oest
Temperatura 19°C
Humitat 73%
Pressió 1017 hPa
Visibilitat 10 km o més
Núvols disperses a una alçada de 4300 ft
Núvols disperses a una alçada de 10000 ft

METAR: SBBI 130100Z 30003KT 9999 SCT043 SCT100 19/14 Q1017

Hora: 22:56 (01:56 UTC)

Pronòstic

L'informe es va fer fa 4 hores i 56 minuts, a les 21:00 UTC
Pronòstic vàlid del 13 a les 00 UTC al 13 a les 12 UTC
Vent 8 kt del Nord/Nord-Est
Visibilitat 10 km o més
sense núvols per sota de 1500 mi sense presència de cumulonimbus.
Probabilitat 30%
l' 13 a les 06 UTC al 13 a les 11 UTC
Visibilitat: 3000 m
Cel ennuvolat a una alçada de 400 ft
boirina

TAF: SBBI 122100Z 1300/1312 03008KT CAVOK TX17/1300Z TN15/1308Z PROB30 1306/1311 3000 BR BKN004 RMK PEI

Observacions i pronòstics meteorològics de més de 4000 aeroports (METAR i TAF).

Les estacions disponibles són els punts grocs i vermells al mapa.

Posi el ratolí al punt desitjat per veure el nom de l'estació.

Feu clic per veure les observacions i els pronòstics meteorològics.

Per canviar el mapa: feu clic els botons verds amb una creu de color negre per apropar; al botó verd amb un guió per allunyar la imatge; o en les fletxes verdes per a mapes adjacents.


METAR-TAF: